Página principal
METAR-TAF:

METAR-TAF

Aeroportos :

Ouagadougou, Burkina Faso

latitude: 12-21N, longitude: 001-31W, altura: 316 m

Observação actual do tempo

O boletim foi feito há 23 minutos, às 08:00 UTC
Vento 7 kt de nor-nordeste, variando entre norte e es-nordeste
Temperatura 23°C
Humidade 16%
Pressão 1015 hPa
Visibilidade: 8000 m

METAR: DFFD 190800Z 03007KT 360V060 8000 NSC 23/M04 Q1015 TEMPO 4000 DU

Hora: 08:23 (08:23 UTC)

Previsão

O boletim foi feito há 3 horas e 23 minutos, às 05:00 UTC
Previsão válida de 19 às 06 UTC a 20 às 12 UTC
Vento 8 kt com direcção variável
Visibilidade: 8000 m
Temporariamente
de 19 às 06 UTC a 19 às 10 UTC
Visibilidade: 1400 m
poeira extensa
Temporariamente
de 19 às 17 UTC a 19 às 21 UTC
Visibilidade: 4000 m
poeira extensa
Temporariamente
de 20 às 06 UTC a 20 às 10 UTC
Visibilidade: 2000 m
poeira extensa

TAF: DFFD 190500Z 1906/2012 VRB08KT 8000 NSC TEMPO 1906/1910 1400 DU TEMPO 1917/1921 4000 DU TEMPO 2006/2010 2000 DU

Observações e previsões do tempo de mais de 4000 aeroportos (mensagens METAR e TAF).

As estações disponíveis são os pontos amarelos e vermelhos sobre o mapa.

Mova o rato sobre o mapa para ver o nome da estação.

Depois clique no ponto para visualizar as observações e previsões meteorológicas.

Para alterar o mapa : clique nos botões verdes com uma cruz preta para aumentar o zoom; no botão verde com uma pitada de zoom; ou nas setas verdes para mapas adjacentes.


METAR-TAF: